N750VY HEGN-OMDB
Flight info
| Callsign | N750VY |
|---|---|
| Flight time | N/A |
| Altitude | 41000 |
| Route | ALMOD1B ALMOD M872 WEJ L604 GAS L308 DAROR P559 VUTEB VUTEB3C |
| Aircraft | C750/M-SBDE3FGHRWXY/S |
Departure
| Time | 2026-04-29 18:10 |
|---|---|
| Airport | Hurghada International Airport (HEGN) |
Arrival
| Time | N/A |
|---|---|
| Airport | Dubai International Airport (OMDB) |
| Time | Latitude | Longitude | Altitude | Speed | Heading |
|---|---|---|---|---|---|
| 2026-04-29 18:07 | 27.16403 | 33.80528 | 42 ft | 0 kts | 345° |
| 2026-04-29 18:09 | 27.16421 | 33.80523 | 42 ft | 8 kts | 345° |
| 2026-04-29 18:10 | 27.16626 | 33.80465 | 43 ft | 77 kts | 345° |
| 2026-04-29 18:10 | 27.17405 | 33.80232 | 151 ft | 134 kts | 346° |
| 2026-04-29 18:10 | 27.18289 | 33.79947 | 833 ft | 132 kts | 341° |
| 2026-04-29 18:10 | 27.19197 | 33.79625 | 1287 ft | 136 kts | 342° |
| 2026-04-29 18:11 | 27.20146 | 33.79314 | 1286 ft | 159 kts | 341° |
| 2026-04-29 18:11 | 27.21245 | 33.78958 | 1854 ft | 161 kts | 342° |
| 2026-04-29 18:11 | 27.22298 | 33.78619 | 2642 ft | 156 kts | 342° |
| 2026-04-29 18:11 | 27.23358 | 33.78275 | 3258 ft | 161 kts | 342° |
| 2026-04-29 18:12 | 27.24517 | 33.77899 | 3625 ft | 188 kts | 342° |
| 2026-04-29 18:12 | 27.25842 | 33.77468 | 4039 ft | 213 kts | 342° |
| 2026-04-29 18:12 | 27.27355 | 33.76978 | 4492 ft | 238 kts | 342° |
| 2026-04-29 18:12 | 27.29023 | 33.76439 | 5020 ft | 257 kts | 342° |
| 2026-04-29 18:13 | 27.30699 | 33.75735 | 5860 ft | 261 kts | 329° |
| 2026-04-29 18:13 | 27.32000 | 33.74323 | 6743 ft | 262 kts | 307° |
| 2026-04-29 18:13 | 27.32721 | 33.72431 | 7635 ft | 268 kts | 284° |
| 2026-04-29 18:13 | 27.32735 | 33.70303 | 7983 ft | 285 kts | 260° |
| 2026-04-29 18:14 | 27.32113 | 33.68222 | 8035 ft | 282 kts | 252° |
| 2026-04-29 18:14 | 27.31474 | 33.66148 | 8026 ft | 279 kts | 254° |
| 2026-04-29 18:14 | 27.30875 | 33.64062 | 8022 ft | 280 kts | 255° |
| 2026-04-29 18:14 | 27.30275 | 33.61993 | 8022 ft | 280 kts | 254° |
| 2026-04-29 18:15 | 27.29657 | 33.59915 | 8028 ft | 279 kts | 254° |
| 2026-04-29 18:15 | 27.29040 | 33.57838 | 8022 ft | 280 kts | 254° |
| 2026-04-29 18:15 | 27.28427 | 33.55758 | 8025 ft | 280 kts | 254° |
| 2026-04-29 18:15 | 27.27815 | 33.53685 | 8020 ft | 280 kts | 254° |
| 2026-04-29 18:16 | 27.26943 | 33.51748 | 7968 ft | 285 kts | 233° |
| 2026-04-29 18:16 | 27.25389 | 33.50357 | 7987 ft | 292 kts | 209° |
| 2026-04-29 18:16 | 27.23370 | 33.49860 | 8646 ft | 299 kts | 182° |
| 2026-04-29 18:16 | 27.21325 | 33.50194 | 9761 ft | 300 kts | 168° |
| 2026-04-29 18:17 | 27.19281 | 33.50807 | 10471 ft | 307 kts | 165° |
| 2026-04-29 18:17 | 27.17224 | 33.51476 | 11268 ft | 309 kts | 166° |
| 2026-04-29 18:17 | 27.15133 | 33.52102 | 12063 ft | 311 kts | 167° |
| 2026-04-29 18:17 | 27.13011 | 33.52712 | 12764 ft | 318 kts | 168° |
| 2026-04-29 18:18 | 27.10854 | 33.53352 | 13504 ft | 322 kts | 167° |
| 2026-04-29 18:18 | 27.08676 | 33.54011 | 14135 ft | 328 kts | 167° |
| 2026-04-29 18:18 | 27.06460 | 33.54674 | 14801 ft | 330 kts | 168° |
| 2026-04-29 18:18 | 27.04222 | 33.55334 | 15417 ft | 336 kts | 168° |
| 2026-04-29 18:19 | 27.01968 | 33.56118 | 15970 ft | 346 kts | 158° |
| 2026-04-29 18:19 | 27.00003 | 33.57775 | 16236 ft | 369 kts | 134° |
| 2026-04-29 18:19 | 26.98704 | 33.60352 | 16151 ft | 396 kts | 107° |
| 2026-04-29 18:19 | 26.98407 | 33.63477 | 16189 ft | 411 kts | 86° |
| 2026-04-29 18:20 | 26.98635 | 33.66630 | 16835 ft | 411 kts | 81° |
| 2026-04-29 18:20 | 26.98961 | 33.69835 | 17368 ft | 417 kts | 81° |
| 2026-04-29 18:20 | 26.99180 | 33.73108 | 17924 ft | 424 kts | 84° |
| 2026-04-29 18:20 | 26.99330 | 33.76430 | 18425 ft | 430 kts | 84° |
| 2026-04-29 18:21 | 26.99539 | 33.79793 | 18955 ft | 433 kts | 82° |
| 2026-04-29 18:21 | 26.99798 | 33.83177 | 19516 ft | 438 kts | 82° |
| 2026-04-29 18:21 | 27.00029 | 33.86587 | 20123 ft | 441 kts | 83° |
| 2026-04-29 18:21 | 27.00231 | 33.90048 | 20649 ft | 447 kts | 83° |
| 2026-04-29 18:22 | 27.00445 | 33.93537 | 21186 ft | 451 kts | 83° |
| 2026-04-29 18:22 | 27.00683 | 33.97074 | 21719 ft | 456 kts | 82° |
| 2026-04-29 18:22 | 27.00918 | 34.00647 | 22248 ft | 462 kts | 82° |
| 2026-04-29 18:22 | 27.01140 | 34.04260 | 22791 ft | 466 kts | 83° |
| 2026-04-29 18:23 | 27.01365 | 34.07905 | 23320 ft | 471 kts | 83° |
| 2026-04-29 18:23 | 27.01600 | 34.11589 | 23797 ft | 476 kts | 82° |
| 2026-04-29 18:23 | 27.01836 | 34.15303 | 24290 ft | 479 kts | 83° |
| 2026-04-29 18:23 | 27.02067 | 34.19041 | 24767 ft | 482 kts | 83° |
| 2026-04-29 18:24 | 27.02031 | 34.22824 | 25130 ft | 492 kts | 97° |
| 2026-04-29 18:24 | 27.01100 | 34.26478 | 25630 ft | 494 kts | 110° |
| 2026-04-29 18:24 | 26.99836 | 34.30067 | 26154 ft | 496 kts | 112° |
| 2026-04-29 18:24 | 26.98487 | 34.33649 | 26615 ft | 500 kts | 113° |
| 2026-04-29 18:25 | 26.97162 | 34.37262 | 27082 ft | 503 kts | 112° |
| 2026-04-29 18:25 | 26.95880 | 34.40928 | 27553 ft | 506 kts | 112° |
| 2026-04-29 18:25 | 26.94576 | 34.44609 | 28016 ft | 509 kts | 112° |
| 2026-04-29 18:25 | 26.93224 | 34.48293 | 28482 ft | 512 kts | 113° |
| 2026-04-29 18:26 | 26.91865 | 34.52003 | 28905 ft | 516 kts | 113° |
| 2026-04-29 18:26 | 26.90523 | 34.55751 | 29357 ft | 519 kts | 112° |
| 2026-04-29 18:26 | 26.89177 | 34.59514 | 29790 ft | 522 kts | 113° |
| 2026-04-29 18:26 | 26.87803 | 34.63291 | 30188 ft | 525 kts | 113° |
| 2026-04-29 18:27 | 26.86416 | 34.67085 | 30564 ft | 527 kts | 114° |
| 2026-04-29 18:27 | 26.85035 | 34.70900 | 30973 ft | 529 kts | 114° |
| 2026-04-29 18:27 | 26.83679 | 34.74658 | 31569 ft | 526 kts | 114° |
| 2026-04-29 18:27 | 26.82299 | 34.78451 | 32056 ft | 526 kts | 114° |
| 2026-04-29 18:28 | 26.80915 | 34.82236 | 32609 ft | 524 kts | 115° |
| 2026-04-29 18:28 | 26.79541 | 34.86010 | 33191 ft | 522 kts | 115° |
| 2026-04-29 18:28 | 26.78175 | 34.89769 | 33759 ft | 521 kts | 115° |
| 2026-04-29 18:28 | 26.76806 | 34.93517 | 34249 ft | 520 kts | 115° |
| 2026-04-29 18:29 | 26.75435 | 34.97263 | 34596 ft | 522 kts | 116° |
| 2026-04-29 18:29 | 26.74520 | 34.99767 | 34816 ft | 523 kts | 116° |
| 2026-04-29 18:29 | 26.72672 | 35.04828 | 35268 ft | 527 kts | 116° |
| 2026-04-29 18:29 | 26.71282 | 35.08628 | 35633 ft | 528 kts | 116° |
| 2026-04-29 18:30 | 26.69885 | 35.12435 | 36001 ft | 530 kts | 116° |
| 2026-04-29 18:30 | 26.68482 | 35.16261 | 36362 ft | 532 kts | 117° |
| 2026-04-29 18:30 | 26.67093 | 35.20048 | 36729 ft | 534 kts | 117° |
| 2026-04-29 18:30 | 26.65680 | 35.23893 | 37101 ft | 536 kts | 117° |
| 2026-04-29 18:31 | 26.64259 | 35.27754 | 37456 ft | 538 kts | 117° |
| 2026-04-29 18:31 | 26.62834 | 35.31624 | 37831 ft | 540 kts | 117° |
| 2026-04-29 18:31 | 26.61408 | 35.35496 | 38211 ft | 541 kts | 117° |
| 2026-04-29 18:31 | 26.59968 | 35.39397 | 38591 ft | 543 kts | 118° |
| 2026-04-29 18:32 | 26.58525 | 35.43305 | 38951 ft | 543 kts | 118° |
| 2026-04-29 18:32 | 26.55650 | 35.51068 | 39873 ft | 537 kts | 118° |
| 2026-04-29 18:32 | 26.54183 | 35.54892 | 40338 ft | 534 kts | 119° |
| 2026-04-29 18:33 | 26.52705 | 35.58692 | 40816 ft | 532 kts | 119° |
| 2026-04-29 18:33 | 26.51242 | 35.62517 | 40927 ft | 540 kts | 118° |
| 2026-04-29 18:33 | 26.48280 | 35.70316 | 40926 ft | 557 kts | 118° |
| 2026-04-29 18:34 | 26.46207 | 35.75695 | 40920 ft | 569 kts | 118° |
| 2026-04-29 18:34 | 26.43596 | 35.82510 | 40945 ft | 581 kts | 118° |
| 2026-04-29 18:34 | 26.42544 | 35.85263 | 40940 ft | 583 kts | 118° |
| 2026-04-29 18:35 | 26.39345 | 35.93575 | 40936 ft | 583 kts | 118° |
| 2026-04-29 18:35 | 26.36139 | 36.01894 | 40935 ft | 584 kts | 118° |
| 2026-04-29 18:36 | 26.32925 | 36.10215 | 40928 ft | 584 kts | 118° |
| 2026-04-29 18:36 | 26.29703 | 36.18541 | 40930 ft | 584 kts | 118° |
| 2026-04-29 18:37 | 26.26481 | 36.26851 | 40918 ft | 583 kts | 119° |
| 2026-04-29 18:37 | 26.23283 | 36.35081 | 40931 ft | 582 kts | 119° |
| 2026-04-29 18:38 | 26.20130 | 36.43398 | 40915 ft | 585 kts | 114° |
| 2026-04-29 18:38 | 26.18428 | 36.52317 | 40922 ft | 595 kts | 97° |
| 2026-04-29 18:39 | 26.18772 | 36.61547 | 40908 ft | 600 kts | 83° |
| 2026-04-29 18:39 | 26.20204 | 36.70712 | 40925 ft | 601 kts | 80° |
| 2026-04-29 18:40 | 26.21130 | 36.79933 | 40915 ft | 598 kts | 88° |
| 2026-04-29 18:40 | 26.21888 | 36.89112 | 40919 ft | 599 kts | 83° |
| 2026-04-29 18:41 | 26.23715 | 37.07566 | 40936 ft | 600 kts | 84° |
| 2026-04-29 18:42 | 26.24714 | 37.16788 | 40956 ft | 599 kts | 85° |
| 2026-04-29 18:42 | 26.25523 | 37.26023 | 40958 ft | 598 kts | 85° |
| 2026-04-29 18:43 | 26.26463 | 37.35248 | 40966 ft | 598 kts | 85° |
| 2026-04-29 18:43 | 26.27301 | 37.44467 | 40969 ft | 598 kts | 85° |
| 2026-04-29 18:44 | 26.28193 | 37.53678 | 40970 ft | 598 kts | 85° |
| 2026-04-29 18:44 | 26.29040 | 37.62837 | 40969 ft | 599 kts | 85° |
| 2026-04-29 18:45 | 26.29909 | 37.72135 | 40946 ft | 599 kts | 85° |
| 2026-04-29 18:45 | 26.30755 | 37.81282 | 40952 ft | 596 kts | 85° |
| 2026-04-29 18:46 | 26.31603 | 37.90540 | 40987 ft | 598 kts | 85° |
| 2026-04-29 18:46 | 26.32444 | 37.99715 | 40953 ft | 598 kts | 86° |
| 2026-04-29 18:47 | 26.33276 | 38.08949 | 40950 ft | 597 kts | 85° |
| 2026-04-29 18:47 | 26.34109 | 38.18178 | 40948 ft | 598 kts | 86° |
| 2026-04-29 18:48 | 26.34930 | 38.27403 | 40948 ft | 597 kts | 86° |
| 2026-04-29 18:48 | 26.35740 | 38.36560 | 40949 ft | 597 kts | 86° |
| 2026-04-29 18:49 | 26.36547 | 38.45770 | 40956 ft | 597 kts | 86° |
| 2026-04-29 18:49 | 26.37351 | 38.55001 | 40965 ft | 599 kts | 86° |
| 2026-04-29 18:50 | 26.38150 | 38.64255 | 40975 ft | 600 kts | 86° |
| 2026-04-29 18:50 | 26.38945 | 38.73517 | 40964 ft | 599 kts | 86° |
| 2026-04-29 18:51 | 26.39732 | 38.82768 | 40966 ft | 598 kts | 86° |
| 2026-04-29 18:51 | 26.40512 | 38.92010 | 40973 ft | 598 kts | 86° |
| 2026-04-29 18:52 | 26.41276 | 39.01126 | 40965 ft | 599 kts | 86° |
| 2026-04-29 18:52 | 26.42042 | 39.10331 | 40979 ft | 599 kts | 86° |
| 2026-04-29 18:53 | 26.42805 | 39.19585 | 40965 ft | 599 kts | 86° |
| 2026-04-29 18:53 | 26.43512 | 39.28853 | 40960 ft | 598 kts | 89° |
| 2026-04-29 18:54 | 26.43970 | 39.38127 | 40966 ft | 598 kts | 89° |
| 2026-04-29 18:54 | 26.44448 | 39.47401 | 40961 ft | 598 kts | 89° |
| 2026-04-29 18:55 | 26.44897 | 39.56613 | 40957 ft | 598 kts | 89° |
| 2026-04-29 18:55 | 26.45357 | 39.65877 | 40963 ft | 596 kts | 89° |
| 2026-04-29 18:56 | 26.45799 | 39.75115 | 40972 ft | 597 kts | 89° |
| 2026-04-29 18:56 | 26.46244 | 39.84370 | 40964 ft | 594 kts | 89° |
| 2026-04-29 18:57 | 26.46674 | 39.93559 | 40971 ft | 592 kts | 89° |
| 2026-04-29 18:57 | 26.47102 | 40.02752 | 40972 ft | 593 kts | 89° |
| 2026-04-29 18:58 | 26.47522 | 40.11911 | 40966 ft | 589 kts | 90° |
| 2026-04-29 18:58 | 26.47933 | 40.21053 | 40966 ft | 590 kts | 90° |
| 2026-04-29 18:59 | 26.48341 | 40.30200 | 40965 ft | 590 kts | 90° |
| 2026-04-29 18:59 | 26.48739 | 40.39319 | 40971 ft | 592 kts | 90° |
| 2026-04-29 19:00 | 26.49139 | 40.48517 | 40964 ft | 592 kts | 90° |
| 2026-04-29 19:00 | 26.49528 | 40.57713 | 40964 ft | 593 kts | 90° |
| 2026-04-29 19:01 | 26.49914 | 40.66906 | 40967 ft | 592 kts | 90° |
| 2026-04-29 19:01 | 26.50289 | 40.76094 | 40964 ft | 592 kts | 90° |
| 2026-04-29 19:02 | 26.50599 | 40.83736 | 40970 ft | 592 kts | 90° |
| 2026-04-29 19:02 | 26.51023 | 40.94399 | 40960 ft | 592 kts | 90° |
| 2026-04-29 19:03 | 26.51371 | 41.03608 | 40965 ft | 591 kts | 92° |
| 2026-04-29 19:03 | 26.50869 | 41.12739 | 40972 ft | 587 kts | 99° |
| 2026-04-29 19:04 | 26.50173 | 41.21849 | 40979 ft | 589 kts | 98° |
| 2026-04-29 19:04 | 26.49587 | 41.30912 | 40981 ft | 589 kts | 99° |
| 2026-04-29 19:05 | 26.48888 | 41.39992 | 40972 ft | 585 kts | 98° |
| 2026-04-29 19:05 | 26.48275 | 41.49029 | 40966 ft | 584 kts | 99° |
| 2026-04-29 19:06 | 26.47586 | 41.58072 | 40957 ft | 583 kts | 99° |
| 2026-04-29 19:07 | 26.46610 | 41.71537 | 40984 ft | 582 kts | 99° |
| 2026-04-29 19:07 | 26.45936 | 41.80540 | 40978 ft | 581 kts | 99° |
| 2026-04-29 19:08 | 26.45267 | 41.89517 | 40980 ft | 580 kts | 99° |
| 2026-04-29 19:08 | 26.44583 | 41.98495 | 40976 ft | 581 kts | 99° |
| 2026-04-29 19:09 | 26.43904 | 42.07463 | 40982 ft | 579 kts | 99° |
| 2026-04-29 19:09 | 26.43210 | 42.16414 | 40978 ft | 579 kts | 99° |
| 2026-04-29 19:10 | 26.42521 | 42.25366 | 40981 ft | 578 kts | 99° |
| 2026-04-29 19:10 | 26.41818 | 42.34301 | 40988 ft | 577 kts | 99° |
| 2026-04-29 19:11 | 26.41117 | 42.43230 | 40993 ft | 577 kts | 99° |
| 2026-04-29 19:11 | 26.40410 | 42.52098 | 40998 ft | 580 kts | 100° |
| 2026-04-29 19:12 | 26.39695 | 42.61052 | 41000 ft | 579 kts | 100° |
| 2026-04-29 19:12 | 26.38974 | 42.69985 | 40992 ft | 578 kts | 100° |
| 2026-04-29 19:13 | 26.38246 | 42.78921 | 40993 ft | 578 kts | 100° |
| 2026-04-29 19:13 | 26.37515 | 42.87856 | 40992 ft | 578 kts | 100° |
| 2026-04-29 19:14 | 26.36775 | 42.96791 | 40994 ft | 578 kts | 100° |
| 2026-04-29 19:14 | 26.36039 | 43.05659 | 40993 ft | 576 kts | 100° |
| 2026-04-29 19:15 | 26.35292 | 43.14543 | 40991 ft | 576 kts | 100° |
| 2026-04-29 19:15 | 26.34541 | 43.23428 | 40981 ft | 576 kts | 101° |
| 2026-04-29 19:16 | 26.33781 | 43.32338 | 41000 ft | 578 kts | 101° |